< VanCam Weather - WU Station History
^^
Station Historical Data
Daily Summary for February 14, 2018 Units:  Metric    English   Both
« Previous Day
Next Day »
Daily Weekly Monthly Yearly Custom
  High: Low: Average:
Temperature: 6.4 °C -0.8 °C 2.1 °C
Dew Point: 5.2 °C -1.2 °C 1.4 °C
Humidity: 97% 81% 95%
Wind Speed: 13km/h 0km/h 1.8km/h
Wind Gust: 13km/h - -
Wind- - ESE
Pressure: 1027 hPa 1017.2 hPa -
Precipitation: 16 mm    
Historical Graphs
 
 
Tabular Data for February 14, 2018
Time Temperature Dew Point Pressure Wind Wind Speed Wind Gust Humidity Rainfall Rate (Hourly) solar Conditions
00:01 2.3 °C -0.6 °C 1018.8 hPa South 3.7 km/h 3.7 km/h 81% 0 mm WeatherDisplay:10.37 W/m2 CLR
00:06 2.3 °C -0.4 °C 1018.8 hPa WNW 5.6 km/h 5.6 km/h 82% 0 mm WeatherDisplay:10.37 W/m2 CLR
00:11 2.3 °C -0.3 °C 1018.8 hPa WNW 1.9 km/h 1.9 km/h 83% 0 mm WeatherDisplay:10.37 W/m2 CLR
00:16 2.3 °C -0.1 °C 1018.8 hPa WNW 1.9 km/h 1.9 km/h 84% 0 mm WeatherDisplay:10.37 W/m2 CLR
00:21 2.3 °C 0.1 °C 1018.8 hPa WSW 3.7 km/h 3.7 km/h 85% 0 mm WeatherDisplay:10.37 W/m2 CLR
00:26 2.3 °C 0.2 °C 1018.8 hPa SSE 3.7 km/h 3.7 km/h 86% 0.25 mm WeatherDisplay:10.37 W/m2 RA
00:31 2.3 °C 0.5 °C 1018.8 hPa SSE 3.7 km/h 3.7 km/h 88% 0.51 mm WeatherDisplay:10.37 W/m2 RA
00:36 2.2 °C 0.8 °C 1018.8 hPa ESE 3.7 km/h 3.7 km/h 90% 0.76 mm WeatherDisplay:10.37 W/m2 RA
00:41 2.2 °C 0.9 °C 1018.8 hPa ENE 5.6 km/h 5.6 km/h 91% 0.76 mm WeatherDisplay:10.37 W/m2 RA
00:46 2.2 °C 0.8 °C 1018.8 hPa ENE 1.9 km/h 1.9 km/h 91% 1.02 mm WeatherDisplay:10.37 W/m2 RA
00:51 2.2 °C 1 °C 1018.8 hPa ENE 3.7 km/h 3.7 km/h 92% 1.27 mm WeatherDisplay:10.37 W/m2 RA
00:56 2.2 °C 1 °C 1018.8 hPa ENE 1.9 km/h 1.9 km/h 92% 1.52 mm WeatherDisplay:10.37 W/m2 RA
01:01 2.1 °C 0.9 °C 1018.8 hPa ENE 1.9 km/h 1.9 km/h 92% 1.78 mm WeatherDisplay:10.37 W/m2 RA
01:06 2.1 °C 1.1 °C 1018.5 hPa ENE 1.9 km/h 1.9 km/h 93% 2.29 mm WeatherDisplay:10.37 W/m2 RA
01:12 2.1 °C 1.1 °C 1018.5 hPa ESE 3.7 km/h   93% 2.29 mm WeatherDisplay:10.37 W/m2 RA
01:17 2.2 °C 1.3 °C 1018.5 hPa East 1.9 km/h 1.9 km/h 94% 2.54 mm WeatherDisplay:10.37 W/m2 RA
01:22 2.2 °C 1.2 °C 1018.5 hPa East 3.7 km/h 3.7 km/h 93% 3.05 mm WeatherDisplay:10.37 W/m2 RA
01:27 2.2 °C 1.2 °C 1018.5 hPa ESE 3.7 km/h 3.7 km/h 93% 3.05 mm WeatherDisplay:10.37 W/m2 RA
01:32 2.1 °C 1.1 °C 1018.5 hPa ESE 5.6 km/h 5.6 km/h 93% 3.05 mm WeatherDisplay:10.37 W/m2 RA
01:37 1.9 °C 0.9 °C 1018.5 hPa East 3.2 km/h 3.2 km/h 93% 3.05 mm WeatherDisplay:10.37 W/m2 RA
01:42 1.7 °C 0.5 °C 1018.5 hPa ESE 5.6 km/h 5.6 km/h 92% 2.79 mm WeatherDisplay:10.37 W/m2 RA
01:47 1.4 °C 0.3 °C 1018.5 hPa ESE 3.7 km/h 3.7 km/h 92% 2.79 mm WeatherDisplay:10.37 W/m2
01:52 1.3 °C 0.3 °C 1018.8 hPa ESE 1.9 km/h 1.9 km/h 93% 2.54 mm WeatherDisplay:10.37 W/m2
01:57 1.2 °C 0.2 °C 1018.8 hPa East 3.7 km/h 3.7 km/h 93% 2.54 mm WeatherDisplay:10.37 W/m2 RA
02:02 1.1 °C 0.1 °C 1018.8 hPa East 3.7 km/h 3.7 km/h 93% 2.29 mm WeatherDisplay:10.37 W/m2 RA
02:07 0.9 °C -0.1 °C 1018.8 hPa ESE 5.6 km/h 5.6 km/h 93% 1.78 mm WeatherDisplay:10.37 W/m2
02:12 0.8 °C 0 °C 1018.5 hPa ESE 5.6 km/h 5.6 km/h 94% 1.78 mm WeatherDisplay:10.37 W/m2
02:17 0.8 °C -0.1 °C 1018.5 hPa East 1.9 km/h 1.9 km/h 94% 1.52 mm WeatherDisplay:10.37 W/m2
02:22 0.7 °C -0.1 °C 1018.5 hPa East 3.7 km/h 3.7 km/h 94% 1.02 mm WeatherDisplay:10.37 W/m2
02:27 0.7 °C -0.1 °C 1018.5 hPa East 3.7 km/h 3.7 km/h 94% 0.76 mm WeatherDisplay:10.37 W/m2
02:32 0.7 °C -0.2 °C 1018.5 hPa East 5.6 km/h 5.6 km/h 94% 0.51 mm WeatherDisplay:10.37 W/m2
02:37 0.7 °C -0.1 °C 1018.2 hPa ESE 3.7 km/h 3.7 km/h 95% 0.25 mm WeatherDisplay:10.37 W/m2
02:42 0.6 °C -0.1 °C 1018.2 hPa East 1.9 km/h 1.9 km/h 95% 0.25 mm WeatherDisplay:10.37 W/m2
02:47 0.7 °C -0.1 °C 1018.5 hPa ESE 5.6 km/h 5.6 km/h 95% 0.25 mm WeatherDisplay:10.37 W/m2
02:52 0.7 °C -0.1 °C 1018.5 hPa ESE 1.9 km/h   95% 0.51 mm WeatherDisplay:10.37 W/m2 RA
02:57 0.6 °C -0.1 °C 1018.5 hPa Calm     95% 0.25 mm WeatherDisplay:10.37 W/m2
03:02 0.6 °C -0.1 °C 1018.5 hPa ESE 1.9 km/h 1.9 km/h 95% 0.25 mm WeatherDisplay:10.37 W/m2
03:07 0.6 °C -0.2 °C 1018.5 hPa Calm     95% 0.25 mm WeatherDisplay:10.37 W/m2
03:12 0.6 °C -0.2 °C 1018.5 hPa ESE 1.9 km/h   95% 0.25 mm WeatherDisplay:10.37 W/m2
03:17 0.5 °C -0.2 °C 1018.5 hPa Calm     95% 0.25 mm WeatherDisplay:10.37 W/m2
03:22 0.4 °C -0.3 °C 1018.5 hPa Calm     95% 0.25 mm WeatherDisplay:10.37 W/m2
03:27 0.4 °C -0.3 °C 1018.5 hPa Calm     95% 0.25 mm WeatherDisplay:10.37 W/m2
03:32 0.4 °C -0.3 °C 1018.5 hPa Calm     95% 0.25 mm WeatherDisplay:10.37 W/m2
03:37 0.4 °C -0.3 °C 1018.5 hPa Calm     95% 0.25 mm WeatherDisplay:10.37 W/m2
03:42 0.4 °C -0.3 °C 1018.5 hPa Calm     95% 0.25 mm WeatherDisplay:10.37 W/m2
03:47 0.4 °C -0.3 °C 1018.2 hPa Calm     95% 0 mm WeatherDisplay:10.37 W/m2
03:52 0.4 °C -0.3 °C 1018.2 hPa Calm     95% 0 mm WeatherDisplay:10.37 W/m2 CLR
03:57 0.4 °C -0.3 °C 1018.2 hPa East 1.9 km/h 1.9 km/h 95% 0.25 mm WeatherDisplay:10.37 W/m2 RA
04:02 0.4 °C -0.1 °C 1018.2 hPa East 1.9 km/h 1.9 km/h 96% 0.25 mm WeatherDisplay:10.37 W/m2 RA
04:07 0.4 °C -0.1 °C 1018.2 hPa Calm     96% 0.25 mm WeatherDisplay:10.37 W/m2
04:12 0.4 °C -0.1 °C 1018.2 hPa East 3.2 km/h 3.2 km/h 96% 0.25 mm WeatherDisplay:10.37 W/m2
04:17 0.5 °C -0.1 °C 1017.8 hPa East 1.9 km/h 1.9 km/h 96% 0.25 mm WeatherDisplay:10.37 W/m2
04:22 0.5 °C -0.1 °C 1018.2 hPa Calm     96% 0.25 mm WeatherDisplay:10.37 W/m2
04:27 0.5 °C -0.1 °C 1017.8 hPa Calm     96% 0.25 mm WeatherDisplay:10.37 W/m2
04:32 0.6 °C 0 °C 1017.8 hPa Calm     96% 0.25 mm WeatherDisplay:10.37 W/m2
04:37 0.6 °C 0 °C 1018.2 hPa Calm     96% 0.25 mm WeatherDisplay:10.37 W/m2
04:42 0.6 °C 0 °C 1017.8 hPa Calm     96% 0.51 mm WeatherDisplay:10.37 W/m2 RA
04:47 0.6 °C 0.1 °C 1017.8 hPa Calm     96% 0.51 mm WeatherDisplay:10.37 W/m2 RA
04:52 0.6 °C 0.1 °C 1017.8 hPa Calm     96% 0.51 mm WeatherDisplay:10.37 W/m2
04:57 0.6 °C 0 °C 1017.8 hPa Calm     96% 0.25 mm WeatherDisplay:10.37 W/m2
05:02 0.6 °C 0 °C 1017.8 hPa Calm     96% 0.25 mm WeatherDisplay:10.37 W/m2
05:07 0.6 °C 0 °C 1017.8 hPa Calm     96% 0.25 mm WeatherDisplay:10.37 W/m2
05:12 0.6 °C 0 °C 1017.8 hPa Calm     96% 0.25 mm WeatherDisplay:10.37 W/m2
05:17 0.6 °C 0 °C 1017.8 hPa Calm     96% 0.51 mm WeatherDisplay:10.37 W/m2 RA
05:22 0.6 °C 0.1 °C 1017.8 hPa Calm     96% 0.51 mm WeatherDisplay:10.37 W/m2 RA
05:27 0.7 °C 0.1 °C 1017.8 hPa Calm     96% 0.51 mm WeatherDisplay:10.37 W/m2
05:32 0.7 °C 0.1 °C 1017.8 hPa Calm     96% 0.51 mm WeatherDisplay:10.37 W/m2
05:37 0.7 °C 0.2 °C 1017.5 hPa Calm     96% 0.51 mm WeatherDisplay:10.37 W/m2
05:42 0.7 °C 0.2 °C 1017.5 hPa Calm     96% 0.25 mm WeatherDisplay:10.37 W/m2
05:47 0.7 °C 0.2 °C 1017.5 hPa Calm     96% 0.51 mm WeatherDisplay:10.37 W/m2 RA
05:52 0.7 °C 0.2 °C 1017.5 hPa ENE 5.6 km/h 5.6 km/h 96% 0.51 mm WeatherDisplay:10.37 W/m2 RA
05:57 0.7 °C 0.2 °C 1017.5 hPa ENE 1.9 km/h 1.9 km/h 96% 0.51 mm WeatherDisplay:10.37 W/m2
06:02 0.7 °C 0.2 °C 1017.5 hPa ENE 1.9 km/h 1.9 km/h 96% 0.51 mm WeatherDisplay:10.37 W/m2
06:07 0.7 °C 0.2 °C 1017.5 hPa ENE 1.9 km/h 1.9 km/h 96% 0.76 mm WeatherDisplay:10.37 W/m2 RA
06:12 0.7 °C 0.2 °C 1017.5 hPa ENE 3.7 km/h 3.7 km/h 96% 0.76 mm WeatherDisplay:10.37 W/m2 RA
06:17 0.8 °C 0.2 °C 1017.5 hPa ENE 3.7 km/h 3.7 km/h 96% 0.51 mm WeatherDisplay:10.37 W/m2
06:22 0.8 °C 0.3 °C 1017.5 hPa ENE 1.9 km/h 1.9 km/h 96% 0.51 mm WeatherDisplay:10.37 W/m2
06:27 0.8 °C 0.3 °C 1017.2 hPa ENE 3.7 km/h 3.7 km/h 96% 0.51 mm WeatherDisplay:10.37 W/m2
06:32 0.9 °C 0.3 °C 1017.2 hPa ENE 1.9 km/h 1.9 km/h 96% 0.76 mm WeatherDisplay:10.37 W/m2 RA
06:37 0.9 °C 0.3 °C 1017.2 hPa Calm     96% 0.76 mm WeatherDisplay:10.37 W/m2 RA
06:42 0.8 °C 0.3 °C 1017.2 hPa Calm     96% 0.76 mm WeatherDisplay:10.37 W/m2
06:47 0.8 °C 0.3 °C 1017.2 hPa East 1.9 km/h 1.9 km/h 96% 0.51 mm WeatherDisplay:10.37 W/m2
06:52 0.8 °C 0.3 °C 1017.2 hPa East 1.9 km/h 1.9 km/h 96% 0.51 mm WeatherDisplay:10.37 W/m2
06:57 0.9 °C 0.3 °C 1017.2 hPa Calm     96% 0.76 mm WeatherDisplay:10.37 W/m2 RA
07:02 0.8 °C 0.3 °C 1017.5 hPa East 1.9 km/h 1.9 km/h 96% 0.76 mm WeatherDisplay:10.37 W/m2 RA
07:07 0.8 °C 0.3 °C 1017.5 hPa Calm     96% 0.76 mm WeatherDisplay:10.37 W/m2 RA
07:12 0.8 °C 0.3 °C 1017.5 hPa Calm     96% 1.02 mm WeatherDisplay:10.37 W/m2 RA
07:17 0.8 °C 0.2 °C 1017.5 hPa East 3.7 km/h 3.7 km/h 96% 1.02 mm WeatherDisplay:10.37 W/m2 RA
07:22 0.7 °C 0.2 °C 1017.5 hPa Calm     96% 1.27 mm WeatherDisplay:10.37 W/m2 RA
07:27 0.7 °C 0.1 °C 1017.8 hPa East 1.9 km/h   96% 1.52 mm WeatherDisplay:10.37 W/m2 RA
07:32 0.6 °C 0.1 °C 1017.8 hPa East 1.9 km/h 1.9 km/h 96% 1.52 mm WeatherDisplay:10.37 W/m2 RA
07:37 0.6 °C 0.1 °C 1017.8 hPa East 1.9 km/h 1.9 km/h 96% 1.78 mm WeatherDisplay:10.37 W/m2 RA
07:42 0.6 °C 0 °C 1017.8 hPa East 1.9 km/h 1.9 km/h 96% 1.78 mm WeatherDisplay:10.37 W/m2 RA
07:47 0.6 °C 0 °C 1017.8 hPa East 1.9 km/h 1.9 km/h 96% 2.03 mm WeatherDisplay:10.37 W/m2 RA
07:52 0.5 °C -0.1 °C 1017.8 hPa East 1.9 km/h 1.9 km/h 96% 2.29 mm WeatherDisplay:10.37 W/m2 RA
07:57 0.5 °C -0.1 °C 1018.2 hPa Calm     96% 2.03 mm WeatherDisplay:10.37 W/m2 RA
08:02 0.5 °C -0.1 °C 1018.2 hPa Calm     96% 2.03 mm WeatherDisplay:10.37 W/m2
08:07 0.5 °C -0.1 °C 1018.2 hPa Calm     96% 1.78 mm WeatherDisplay:10.37 W/m2
08:12 0.5 °C -0.1 °C 1018.2 hPa East 1.9 km/h 1.9 km/h 96% 1.78 mm WeatherDisplay:10.37 W/m2 RA
08:17 0.6 °C 0 °C 1018.2 hPa East 3.7 km/h 3.7 km/h 96% 1.78 mm WeatherDisplay:10.37 W/m2 RA
08:22 0.6 °C 0.1 °C 1018.2 hPa East 1.9 km/h 1.9 km/h 97% 1.52 mm WeatherDisplay:10.37 W/m2
08:27 0.6 °C 0.1 °C 1018.2 hPa East 1.9 km/h 1.9 km/h 97% 1.27 mm WeatherDisplay:10.37 W/m2
08:32 0.6 °C 0.1 °C 1018.2 hPa East 3.7 km/h 3.7 km/h 97% 1.27 mm WeatherDisplay:10.37 W/m2 RA
08:37 0.6 °C 0.1 °C 1018.5 hPa Calm     97% 1.02 mm WeatherDisplay:10.37 W/m2 RA
08:42 0.6 °C 0.1 °C 1018.5 hPa East 1.9 km/h 1.9 km/h 96% 1.02 mm WeatherDisplay:10.37 W/m2
08:47 0.6 °C 0.2 °C 1018.5 hPa Calm     97% 0.76 mm WeatherDisplay:10.37 W/m2
08:52 0.7 °C 0.2 °C 1018.5 hPa East 3.7 km/h 3.7 km/h 97% 0.51 mm WeatherDisplay:10.37 W/m2
08:57 0.7 °C 0.2 °C 1018.5 hPa Calm     97% 0.76 mm WeatherDisplay:10.37 W/m2 RA
09:02 0.7 °C 0.2 °C 1018.5 hPa East 1.9 km/h 1.9 km/h 97% 0.76 mm WeatherDisplay:10.37 W/m2 RA
09:07 0.7 °C 0.2 °C 1018.5 hPa Calm     97% 0.76 mm WeatherDisplay:10.37 W/m2
09:12 0.7 °C 0.3 °C 1018.8 hPa Calm     97% 0.51 mm WeatherDisplay:10.37 W/m2
09:17 0.8 °C 0.3 °C 1018.8 hPa East 1.9 km/h 1.9 km/h 97% 0.51 mm WeatherDisplay:10.37 W/m2
09:22 0.8 °C 0.3 °C 1018.8 hPa East 1.9 km/h 1.9 km/h 97% 0.76 mm WeatherDisplay:10.37 W/m2 RA
09:27 0.8 °C 0.3 °C 1019.2 hPa Calm     97% 0.76 mm WeatherDisplay:10.37 W/m2 RA
09:32 0.8 °C 0.4 °C 1019.2 hPa Calm     97% 0.51 mm WeatherDisplay:10.37 W/m2
09:37 0.9 °C 0.4 °C 1019.2 hPa Calm     97% 0.76 mm WeatherDisplay:10.37 W/m2 RA
09:42 1 °C 0.6 °C 1019.2 hPa Calm     97% 0.76 mm WeatherDisplay:10.37 W/m2 RA
09:47 1.1 °C 0.7 °C 1019.2 hPa Calm     97% 0.76 mm WeatherDisplay:10.37 W/m2
09:52 1.2 °C 0.7 °C 1019.2 hPa Calm     97% 1.02 mm WeatherDisplay:10.37 W/m2 RA
09:57 1.2 °C 0.8 °C 1019.2 hPa Calm     97% 0.76 mm WeatherDisplay:10.37 W/m2 RA
10:02 1.3 °C 0.9 °C 1019.2 hPa Calm     97% 1.02 mm WeatherDisplay:10.37 W/m2 RA
10:07 1.4 °C 0.9 °C 1019.2 hPa Calm     97% 1.02 mm WeatherDisplay:10.37 W/m2 RA
10:08 1.3 °C 0.9 °C 1019.2 hPa Calm     97% 1.02 mm WeatherDisplay:10.37 W/m2 RA
10:13 1.5 °C 1.1 °C 1019.5 hPa Calm     97% 1.27 mm WeatherDisplay:10.37 W/m2 RA
10:18 1.7 °C 1.3 °C 1019.5 hPa Calm     97% 1.02 mm WeatherDisplay:10.37 W/m2 RA
10:23 1.8 °C 1.4 °C 1019.5 hPa East 1.9 km/h 1.9 km/h 97% 1.27 mm WeatherDisplay:10.37 W/m2 RA
10:28 2 °C 1.6 °C 1019.5 hPa East 1.9 km/h 1.9 km/h 97% 1.52 mm WeatherDisplay:10.37 W/m2 RA
10:33 2.1 °C 1.7 °C 1019.5 hPa Calm     97% 1.78 mm WeatherDisplay:10.37 W/m2 RA
10:38 2.2 °C 1.7 °C 1019.9 hPa Calm     97% 1.78 mm WeatherDisplay:10.37 W/m2 RA
10:43 2.3 °C 1.8 °C 1019.9 hPa Calm     97% 1.78 mm WeatherDisplay:10.37 W/m2 RA
10:48 2.3 °C 1.9 °C 1019.9 hPa East 1.9 km/h 1.9 km/h 97% 2.03 mm WeatherDisplay:10.37 W/m2 RA
10:53 2.3 °C 1.9 °C 1019.9 hPa East 1.9 km/h 1.9 km/h 97% 2.03 mm WeatherDisplay:10.37 W/m2 RA
10:58 2.5 °C 2.1 °C 1019.9 hPa Calm     97% 2.03 mm WeatherDisplay:10.37 W/m2 RA
11:03 2.6 °C 2.2 °C 1019.9 hPa East 1.9 km/h 1.9 km/h 97% 2.03 mm WeatherDisplay:10.37 W/m2 RA
11:08 2.8 °C 2.3 °C 1019.9 hPa East 1.9 km/h 1.9 km/h 97% 2.29 mm WeatherDisplay:10.37 W/m2 RA
11:13 2.9 °C 2.4 °C 1019.9 hPa East 1.9 km/h 1.9 km/h 97% 2.29 mm WeatherDisplay:10.37 W/m2 RA
11:18 3 °C 2.6 °C 1019.9 hPa East 1.9 km/h 1.9 km/h 97% 2.29 mm WeatherDisplay:10.37 W/m2 RA
11:23 3.1 °C 2.7 °C 1020.2 hPa East 1.9 km/h 1.9 km/h 97% 2.29 mm WeatherDisplay:10.37 W/m2 RA
11:28 3.2 °C 2.8 °C 1020.2 hPa East 1.9 km/h 1.9 km/h 97% 2.29 mm WeatherDisplay:10.37 W/m2 RA
11:33 3.3 °C 2.8 °C 1019.9 hPa East 3.7 km/h 3.7 km/h 97% 2.03 mm WeatherDisplay:10.37 W/m2 RA
11:38 3.3 °C 2.8 °C 1019.9 hPa East 1.9 km/h 1.9 km/h 97% 2.03 mm WeatherDisplay:10.37 W/m2 RA
11:43 3.3 °C 2.9 °C 1019.9 hPa ESE 3.7 km/h 3.7 km/h 97% 2.29 mm WeatherDisplay:10.37 W/m2 RA
11:48 3.3 °C 2.9 °C 1019.9 hPa ESE 3.2 km/h 3.2 km/h 97% 2.03 mm WeatherDisplay:10.37 W/m2 RA
11:53 3.4 °C 2.9 °C 1019.9 hPa ESE 3.7 km/h 3.7 km/h 96% 2.03 mm WeatherDisplay:10.37 W/m2 RA
11:58 3.6 °C 3.2 °C 1019.9 hPa ENE 5.6 km/h 5.6 km/h 97% 2.03 mm WeatherDisplay:10.37 W/m2 RA
12:03 3.8 °C 3.3 °C 1019.9 hPa ENE 3.7 km/h 3.7 km/h 97% 2.03 mm WeatherDisplay:10.37 W/m2 RA
12:08 3.9 °C 3.3 °C 1019.9 hPa ENE 3.7 km/h 3.7 km/h 96% 1.78 mm WeatherDisplay:10.37 W/m2 RA
12:13 3.9 °C 3.4 °C 1019.5 hPa ENE 5.6 km/h 5.6 km/h 96% 1.78 mm WeatherDisplay:10.37 W/m2 RA
12:23 4.1 °C 3.3 °C 1019.5 hPa ENE 1.9 km/h 1.9 km/h 95% 1.78 mm WeatherDisplay:10.37 W/m2 RA
12:28 4.2 °C 3.4 °C 1019.5 hPa ENE 1.9 km/h 1.9 km/h 95% 1.52 mm WeatherDisplay:10.37 W/m2
12:33 4.3 °C 3.6 °C 1019.5 hPa ENE 3.7 km/h 3.7 km/h 95% 1.78 mm WeatherDisplay:10.37 W/m2 RA
12:38 4.3 °C 3.6 °C 1019.5 hPa Calm     95% 1.52 mm WeatherDisplay:10.37 W/m2 RA
12:43 4.5 °C 3.9 °C 1019.5 hPa ENE 3.7 km/h 3.7 km/h 96% 1.27 mm WeatherDisplay:10.37 W/m2
12:48 4.6 °C 3.8 °C 1019.5 hPa ENE 3.7 km/h 3.7 km/h 95% 1.52 mm WeatherDisplay:10.37 W/m2 RA
12:53 4.7 °C 3.9 °C 1019.5 hPa ENE 3.7 km/h 3.7 km/h 95% 1.27 mm WeatherDisplay:10.37 W/m2 RA
12:59 4.8 °C 4.1 °C 1019.5 hPa ENE 3.7 km/h 3.7 km/h 95% 1.27 mm WeatherDisplay:10.37 W/m2
13:04 4.8 °C 4.1 °C 1019.5 hPa ENE 3.2 km/h 3.2 km/h 95% 1.27 mm WeatherDisplay:10.37 W/m2 RA
13:09 4.9 °C 4.2 °C 1019.5 hPa ENE 1.9 km/h 1.9 km/h 95% 1.27 mm WeatherDisplay:10.37 W/m2 RA
13:14 5 °C 4.3 °C 1019.5 hPa ENE 3.2 km/h 3.2 km/h 95% 1.02 mm WeatherDisplay:10.37 W/m2
13:19 5 °C 4.3 °C 1019.5 hPa NE 3.7 km/h 3.7 km/h 95% 0.76 mm WeatherDisplay:10.37 W/m2
13:24 5 °C 4.3 °C 1019.5 hPa NE 1.9 km/h 1.9 km/h 95% 0.76 mm WeatherDisplay:10.37 W/m2
13:29 5.1 °C 4.4 °C 1019.5 hPa NE 1.9 km/h 1.9 km/h 95% 0.76 mm WeatherDisplay:10.37 W/m2
13:34 5.2 °C 4.6 °C 1019.5 hPa North 6.4 km/h 6.4 km/h 96% 0.51 mm WeatherDisplay:10.37 W/m2
13:39 5.3 °C 4.6 °C 1019.5 hPa North 3.7 km/h 3.7 km/h 95% 0.51 mm WeatherDisplay:10.37 W/m2
13:44 5.3 °C 4.6 °C 1019.5 hPa North 5.6 km/h 5.6 km/h 95% 0.76 mm WeatherDisplay:10.37 W/m2 RA
13:49 5.3 °C 4.6 °C 1019.5 hPa North 1.9 km/h 1.9 km/h 95% 0.51 mm WeatherDisplay:10.37 W/m2 RA
13:54 5.3 °C 4.6 °C 1019.5 hPa North 3.7 km/h 3.7 km/h 95% 0.51 mm WeatherDisplay:10.37 W/m2
13:59 5.3 °C 4.6 °C 1019.5 hPa North 1.9 km/h 1.9 km/h 95% 0.76 mm WeatherDisplay:10.37 W/m2 RA
14:29 5.8 °C 5.1 °C 1019.9 hPa Calm   4.8 km/h 95% 0.51 mm WeatherDisplay:10.37 W/m2 RA
15:04 6.2 °C 5.2 °C 1019.9 hPa Calm   3.2 km/h 93% 0.51 mm WeatherDisplay:10.37 W/m2 RA
15:09 6.2 °C 5.2 °C 1019.9 hPa Calm   3.2 km/h 93% 0.51 mm WeatherDisplay:10.37 W/m2
15:14 6.2 °C 5.2 °C 1019.9 hPa Calm   3.2 km/h 93% 0.51 mm WeatherDisplay:10.37 W/m2
15:19 6.2 °C 5.2 °C 1019.9 hPa Calm   3.2 km/h 93% 0.51 mm WeatherDisplay:10.37 W/m2
15:24 6.2 °C 5.2 °C 1019.9 hPa Calm   3.2 km/h 93% 0.51 mm WeatherDisplay:10.37 W/m2
15:29 6.2 °C 5.2 °C 1019.9 hPa Calm   3.2 km/h 93% 0.51 mm WeatherDisplay:10.37 W/m2
15:34 6.2 °C 4.8 °C 1020.2 hPa West 1.6 km/h 11.3 km/h 91% 0.51 mm WeatherDisplay:10.37 W/m2
15:39 6.2 °C 4.8 °C 1020.2 hPa SSW 1.6 km/h 11.3 km/h 91% 0.25 mm WeatherDisplay:10.37 W/m2
15:44 6.2 °C 4.8 °C 1020.2 hPa SSW 1.6 km/h 11.3 km/h 91% 0.25 mm WeatherDisplay:10.37 W/m2
15:49 6.2 °C 4.8 °C 1020.2 hPa SSW 1.6 km/h 11.3 km/h 91% 0.25 mm WeatherDisplay:10.37 W/m2
15:54 6.2 °C 4.8 °C 1020.2 hPa SSW 1.6 km/h 11.3 km/h 91% 0.76 mm WeatherDisplay:10.37 W/m2
15:59 6.2 °C 4.8 °C 1020.2 hPa SSW 1.6 km/h 11.3 km/h 91% 0 mm WeatherDisplay:10.37 W/m2
16:04 6.4 °C 4.8 °C 1020.5 hPa SSW 1.6 km/h 6.4 km/h 89% 0 mm WeatherDisplay:10.37 W/m2
16:09 6.4 °C 4.8 °C 1020.5 hPa SSW 1.6 km/h 6.4 km/h 89% 0 mm WeatherDisplay:10.37 W/m2
16:14 6.4 °C 4.8 °C 1020.5 hPa SSW 1.6 km/h 6.4 km/h 89% 0 mm WeatherDisplay:10.37 W/m2
16:19 6.4 °C 4.8 °C 1020.5 hPa SSW 1.6 km/h 6.4 km/h 89% 0 mm WeatherDisplay:10.37 W/m2
16:24 6.4 °C 4.8 °C 1020.5 hPa SSW 1.6 km/h 6.4 km/h 89% 0 mm WeatherDisplay:10.37 W/m2
16:29 6.4 °C 4.8 °C 1020.5 hPa SSW 1.6 km/h 6.4 km/h 89% 0 mm WeatherDisplay:10.37 W/m2
16:34 6.2 °C 4.6 °C 1020.9 hPa Calm   12.9 km/h 89% 0 mm WeatherDisplay:10.37 W/m2
16:39 6.2 °C 4.6 °C 1020.9 hPa Calm   12.9 km/h 89% 0 mm WeatherDisplay:10.37 W/m2
16:44 6.2 °C 4.6 °C 1020.9 hPa Calm   12.9 km/h 89% 0 mm WeatherDisplay:10.37 W/m2
16:49 6.2 °C 4.6 °C 1020.9 hPa Calm   12.9 km/h 89% 0 mm WeatherDisplay:10.37 W/m2
16:54 6.2 °C 4.6 °C 1020.9 hPa Calm   12.9 km/h 89% 0 mm WeatherDisplay:10.37 W/m2
16:59 6.2 °C 4.6 °C 1020.9 hPa Calm   12.9 km/h 89% 0 mm WeatherDisplay:10.37 W/m2
17:12 6 °C 5.1 °C 1021.2 hPa South 13 km/h 13 km/h 94% 0 mm WeatherDisplay:10.37 W/m2
17:36 5.2 °C 4.2 °C 1021.6 hPa South 1.9 km/h 1.9 km/h 93% 0 mm WeatherDisplay:10.37 W/m2 CLR
17:41 5.1 °C 4.2 °C 1021.6 hPa Calm     94% 0 mm WeatherDisplay:10.37 W/m2
17:46 5 °C 4.1 °C 1021.6 hPa Calm     94% 0 mm WeatherDisplay:10.37 W/m2
17:51 4.9 °C 4 °C 1021.6 hPa Calm     94% 0 mm WeatherDisplay:10.37 W/m2
17:56 4.8 °C 4.1 °C 1021.9 hPa Calm     95% 0 mm WeatherDisplay:10.37 W/m2
18:01 4.7 °C 3.9 °C 1021.9 hPa Calm     95% 0 mm WeatherDisplay:10.37 W/m2
18:06 4.6 °C 3.9 °C 1022.2 hPa Calm     95% 0 mm WeatherDisplay:10.37 W/m2
18:11 4.6 °C 3.8 °C 1022.2 hPa South 1.6 km/h 1.6 km/h 95% 0 mm WeatherDisplay:10.37 W/m2
18:16 4.5 °C 3.8 °C 1022.2 hPa Calm     95% 0 mm WeatherDisplay:10.37 W/m2
18:21 4.4 °C 3.9 °C 1022.2 hPa South 1.9 km/h   96% 0 mm WeatherDisplay:10.37 W/m2
18:26 4.4 °C 3.7 °C 1022.2 hPa South 1.9 km/h 1.9 km/h 95% 0 mm WeatherDisplay:10.37 W/m2
18:31 4.3 °C 3.8 °C 1022.6 hPa Calm     96% 0.25 mm WeatherDisplay:10.37 W/m2 RA
18:36 4.3 °C 3.7 °C 1022.6 hPa South 3.7 km/h 3.7 km/h 96% 0.25 mm WeatherDisplay:10.37 W/m2 RA
18:41 4.2 °C 3.7 °C 1022.6 hPa South 1.9 km/h 1.9 km/h 96% 0.25 mm WeatherDisplay:10.37 W/m2
18:46 4.2 °C 3.6 °C 1022.6 hPa South 3.7 km/h 3.7 km/h 96% 0.25 mm WeatherDisplay:10.37 W/m2
18:51 4.1 °C 3.3 °C 1022.9 hPa Calm     95% 0.25 mm WeatherDisplay:10.37 W/m2
18:56 4 °C 3.4 °C 1022.9 hPa South 1.6 km/h 1.6 km/h 96% 0.25 mm WeatherDisplay:10.37 W/m2
19:01 3.9 °C 3.2 °C 1022.9 hPa South 1.9 km/h   95% 0.25 mm WeatherDisplay:10.37 W/m2
19:06 3.7 °C 3 °C 1022.9 hPa Calm     95% 0.25 mm WeatherDisplay:10.37 W/m2
19:11 3.6 °C 2.9 °C 1023.2 hPa Calm     95% 0.25 mm WeatherDisplay:10.37 W/m2
19:16 3.4 °C 2.7 °C 1023.2 hPa Calm     95% 0.25 mm WeatherDisplay:10.37 W/m2
19:21 3.3 °C 2.6 °C 1023.2 hPa Calm     95% 0.25 mm WeatherDisplay:10.37 W/m2
19:26 3.2 °C 2.4 °C 1023.6 hPa Calm     95% 0.25 mm WeatherDisplay:10.37 W/m2
19:31 3 °C 2.3 °C 1023.6 hPa South 1.9 km/h 1.9 km/h 95% 0 mm WeatherDisplay:10.37 W/m2 CLR
19:36 2.9 °C 2.4 °C 1023.6 hPa South 1.9 km/h 1.9 km/h 96% 0 mm WeatherDisplay:10.37 W/m2 CLR
19:41 2.8 °C 2.1 °C 1023.6 hPa Calm     95% 0 mm WeatherDisplay:10.37 W/m2 CLR
19:46 2.6 °C 1.8 °C 1023.6 hPa South 1.9 km/h 1.9 km/h 95% 0 mm WeatherDisplay:10.37 W/m2 CLR
19:51 2.2 °C 1.3 °C 1023.9 hPa South 1.9 km/h 1.9 km/h 94% 0 mm WeatherDisplay:10.37 W/m2 CLR
19:56 2.1 °C 1.4 °C 1023.9 hPa South 1.9 km/h 1.9 km/h 95% 0 mm WeatherDisplay:10.37 W/m2 CLR
20:01 2.1 °C 1.5 °C 1023.9 hPa South 1.9 km/h 1.9 km/h 96% 0 mm WeatherDisplay:10.37 W/m2 CLR
20:06 1.9 °C 1.4 °C 1024.3 hPa South 1.6 km/h   96% 0 mm WeatherDisplay:10.37 W/m2 CLR
20:11 1.8 °C 1.1 °C 1024.3 hPa South 1.9 km/h 1.9 km/h 95% 0 mm WeatherDisplay:10.37 W/m2 CLR
20:16 1.7 °C 1.2 °C 1024.6 hPa South 1.9 km/h 1.9 km/h 96% 0 mm WeatherDisplay:10.37 W/m2 CLR
20:21 1.6 °C 1.1 °C 1024.6 hPa South 1.9 km/h 1.9 km/h 96% 0 mm WeatherDisplay:10.37 W/m2 CLR
20:26 1.6 °C 1 °C 1024.6 hPa Calm     96% 0 mm WeatherDisplay:10.37 W/m2 CLR
20:31 1.4 °C 0.9 °C 1024.6 hPa Calm     96% 0 mm WeatherDisplay:10.37 W/m2 CLR
20:36 1.3 °C 0.7 °C 1024.9 hPa Calm     96% 0 mm WeatherDisplay:10.37 W/m2 CLR
20:41 1.2 °C 0.6 °C 1024.9 hPa Calm     96% 0 mm WeatherDisplay:10.37 W/m2 CLR
20:46 1.1 °C 0.5 °C 1024.9 hPa South 1.9 km/h 1.9 km/h 96% 0 mm WeatherDisplay:10.37 W/m2 CLR
20:51 0.9 °C 0.4 °C 1025.3 hPa South 1.9 km/h   96% 0 mm WeatherDisplay:10.37 W/m2 CLR
20:56 0.8 °C 0.3 °C 1025.3 hPa Calm     96% 0 mm WeatherDisplay:10.37 W/m2 CLR
21:01 0.7 °C 0.2 °C 1025.3 hPa South 1.9 km/h   96% 0 mm WeatherDisplay:10.37 W/m2 CLR
21:06 0.5 °C -0.2 °C 1025.3 hPa Calm     95% 0 mm WeatherDisplay:10.37 W/m2 CLR
21:11 0.3 °C -0.4 °C 1025.3 hPa Calm     95% 0 mm WeatherDisplay:10.37 W/m2 CLR
21:16 0.2 °C -0.6 °C 1025.6 hPa South 1.6 km/h 1.6 km/h 95% 0 mm WeatherDisplay:10.37 W/m2 CLR
21:21 0 °C -0.7 °C 1025.6 hPa South 1.9 km/h 1.9 km/h 95% 0 mm WeatherDisplay:10.37 W/m2 CLR
21:26 0 °C -0.6 °C 1025.6 hPa South 3.7 km/h 3.7 km/h 96% 0 mm WeatherDisplay:10.37 W/m2 CLR
21:31 0 °C -0.6 °C 1025.6 hPa South 1.9 km/h 1.9 km/h 96% 0 mm WeatherDisplay:10.37 W/m2 CLR
21:36 0 °C -0.6 °C 1026 hPa South 3.7 km/h 3.7 km/h 96% 0 mm WeatherDisplay:10.37 W/m2 CLR
21:41 -0.1 °C -0.6 °C 1026 hPa Calm     96% 0 mm WeatherDisplay:10.37 W/m2 CLR
21:46 -0.1 °C -0.6 °C 1026 hPa South 1.9 km/h 1.9 km/h 96% 0 mm WeatherDisplay:10.37 W/m2 CLR
21:51 0 °C -0.4 °C 1026 hPa Calm     97% 0 mm WeatherDisplay:10.37 W/m2 CLR
21:56 -0.1 °C -0.5 °C 1026 hPa Calm     97% 0 mm WeatherDisplay:10.37 W/m2 CLR
22:01 -0.1 °C -0.6 °C 1026 hPa South 1.9 km/h 1.9 km/h 96% 0 mm WeatherDisplay:10.37 W/m2 CLR
22:06 -0.2 °C -0.7 °C 1026 hPa South 1.9 km/h 1.9 km/h 96% 0 mm WeatherDisplay:10.37 W/m2 CLR
22:11 -0.2 °C -0.8 °C 1026.3 hPa South 1.9 km/h 1.9 km/h 96% 0 mm WeatherDisplay:10.37 W/m2 CLR
22:16 -0.3 °C -0.7 °C 1026.3 hPa South 1.9 km/h 1.9 km/h 97% 0 mm WeatherDisplay:10.37 W/m2 CLR
22:21 -0.3 °C -0.7 °C 1026.3 hPa South 1.9 km/h 1.9 km/h 97% 0 mm WeatherDisplay:10.37 W/m2 CLR
22:26 -0.2 °C -0.7 °C 1026.3 hPa South 3.7 km/h 3.7 km/h 97% 0 mm WeatherDisplay:10.37 W/m2 CLR
22:31 -0.3 °C -0.7 °C 1026.3 hPa South 1.9 km/h 1.9 km/h 97% 0 mm WeatherDisplay:10.37 W/m2 CLR
22:36 -0.3 °C -0.8 °C 1026.3 hPa East 1.9 km/h 1.9 km/h 97% 0 mm WeatherDisplay:10.37 W/m2 CLR
22:41 -0.2 °C -0.7 °C 1026.3 hPa East 3.7 km/h 3.7 km/h 97% 0 mm WeatherDisplay:10.37 W/m2 CLR
22:46 -0.3 °C -0.7 °C 1026.6 hPa East 1.9 km/h 1.9 km/h 97% 0 mm WeatherDisplay:10.37 W/m2 CLR
22:52 -0.2 °C -0.7 °C 1026.6 hPa East 1.9 km/h 1.9 km/h 97% 0 mm WeatherDisplay:10.37 W/m2 CLR
22:57 -0.2 °C -0.6 °C 1026.6 hPa East 3.7 km/h 3.7 km/h 97% 0 mm WeatherDisplay:10.37 W/m2 CLR
23:02 -0.2 °C -0.7 °C 1026.6 hPa East 1.9 km/h 1.9 km/h 97% 0 mm WeatherDisplay:10.37 W/m2 CLR
23:07 -0.3 °C -0.8 °C 1027 hPa East 1.9 km/h 1.9 km/h 97% 0 mm WeatherDisplay:10.37 W/m2 CLR
23:12 -0.4 °C -0.9 °C 1027 hPa East 1.9 km/h 1.9 km/h 97% 0 mm WeatherDisplay:10.37 W/m2 CLR
23:17 -0.5 °C -0.9 °C 1027 hPa East 3.7 km/h 3.7 km/h 97% 0 mm WeatherDisplay:10.37 W/m2 CLR
23:22 -0.6 °C -1 °C 1027 hPa East 1.9 km/h 1.9 km/h 97% 0 mm WeatherDisplay:10.37 W/m2 CLR
23:27 -0.7 °C -1.1 °C 1027 hPa East 3.7 km/h 3.7 km/h 97% 0 mm WeatherDisplay:10.37 W/m2 CLR
23:32 -0.8 °C -1.2 °C 1027 hPa East 3.7 km/h 3.7 km/h 97% 0 mm WeatherDisplay:10.37 W/m2 CLR
23:37 -0.7 °C -1.1 °C 1027 hPa East 1.9 km/h 1.9 km/h 97% 0 mm WeatherDisplay:10.37 W/m2 CLR
23:42 -0.7 °C -1.1 °C 1027 hPa East 3.7 km/h 3.7 km/h 97% 0 mm WeatherDisplay:10.37 W/m2 CLR
23:47 -0.7 °C -1.1 °C 1027 hPa East 3.7 km/h 3.7 km/h 97% 0 mm WeatherDisplay:10.37 W/m2 CLR
23:52 -0.7 °C -1.1 °C 1027 hPa East 3.7 km/h 3.7 km/h 97% 0 mm WeatherDisplay:10.37 W/m2 CLR
23:57 -0.6 °C -1 °C 1027 hPa ENE 3.2 km/h 3.2 km/h 97% 0 mm WeatherDisplay:10.37 W/m2 CLR
VanCam Weather
Compliments of Weather Underground - 3.75 mb